Tawakoni's Hourly Summary for Tuesday, May 15, 2018
Hour Temp
(f)
RH
(%)
Solar Rad.
(MJ/m2)
Rainfall
(in)
Wind
(mph)
5/15/2018 12:00 AM 75 72 0 0 5.27
5/15/2018 1:00 AM 74 73 0 0 5.1
5/15/2018 2:00 AM 73 71 0 0 5.42
5/15/2018 3:00 AM 73 71 0 0 6.03
5/15/2018 4:00 AM 72 72 0 0 5.57
5/15/2018 5:00 AM 72 76 0 0 4.58
5/15/2018 6:00 AM 71 77 0 0 3.29
5/15/2018 7:00 AM 71 79 0.01 0.11 1.59
5/15/2018 8:00 AM 69 88 0.02 0.21 3.82
5/15/2018 9:00 AM 68 92 0.2 0.07 4.34
5/15/2018 10:00 AM 69 90 0.68 0 3.17
5/15/2018 11:00 AM 71 86 0.51 0.02 3.35
5/15/2018 12:00 PM 71 86 0.73 0 3.32
5/15/2018 1:00 PM 75 70 1.6 0 3.16
5/15/2018 2:00 PM 80 57 3.1 0 6.17
5/15/2018 3:00 PM 82 51 2.75 0 6.66
5/15/2018 4:00 PM 84 43 2.53 0 4.93
5/15/2018 5:00 PM 85 43 2.06 0 3.99
5/15/2018 6:00 PM 84 42 1.16 0 2.75
5/15/2018 7:00 PM 79 53 0.4 0 1.38
5/15/2018 8:00 PM 74 66 0.21 0 5.63
5/15/2018 9:00 PM 71 74 0.01 0 4.87
5/15/2018 10:00 PM 68 79 0 0 4.02
5/15/2018 11:00 PM 67 80 0 0 1.82
Data Summary 74 70 15.97 0.41 4.18